Kiruna, Sweden

5:47 AM CET on December 05, 2016 (GMT +0100)
Porfyrvägen | | Change Station

Elev -10000 ft 67.87 °N, 20.22 °E | Updated 28 seconds ago

Snow Grains
Snow Grains
12.9 °F
Feels Like 13 °F
N
1.2
Wind Variable Wind from NNE
Gusts 2.5 mph

Today
High -- | Low -- °F
--% Chance of Precip.
Yesterday
High -- | Low -- °F
Precip. -- in
Pressure 29.36 in
Visibility 3.1 miles
Clouds Mostly Cloudy 1200 ft
Overcast 5900 ft
Windchill 13 °F
Dew Point 11 °F
Humidity 93%
Rainfall 0.00 in
Snow Depth Not available.
10:36 AM 12:22 PM
Waxing Crescent, 28% visible
METAR ESNQ 050420Z AUTO 00000KT 5000 SG BKN012/// OVC059/// M11/M12 Q0994 RESG
Pressure 29.36 in
Visibility 3.1 miles
Clouds Mostly Cloudy 1200 ft
Overcast 5900 ft
Windchill 13 °F
Dew Point 11 °F
Humidity 93%
Rainfall 0.00 in
Snow Depth Not available.
10:36 AM 12:22 PM
Waxing Crescent, 28% visible
METAR ESNQ 050420Z AUTO 00000KT 5000 SG BKN012/// OVC059/// M11/M12 Q0994 RESG

10-Day Weather Forecast

×

Almanac

Astronomy

Dec. 05, 2016 Rise Set
Actual Time
Civil Twilight
Nautical Twilight
Astronomical Twilight
Moon
Length of Visible Light
Length of Day
Tomorrow will be .
, % of the Moon is Illuminated

Today's Extremes

Country Highs Country Lows

Community

WunderPhotos

Upload Photos

1,955,757 photos uploaded!

WunderBlog® & News

Nearby

Air Quality

  Air Quality AQ Index Pollutant
Not available.

Snow Depth

Station Depth Elevation

Earthquake Activity

City Distance Mag. Time & Date
Minimum magnitude displayed is 2.5.

Coastal Water Temperatures

Place Temperature

Stations

Nearby Weather Stations

Station Location Temp. Windchill Dew Point Humidity Wind Precip. Elev Updated Type